sensor_id;sensor_type;location;lat;lon;timestamp;P1;durP1;ratioP1;P2;durP2;ratioP2
12385;SDS011;6257;57.634;18.310;2023-01-13T00:00:37;3.97;;;1.73;;
12385;SDS011;6257;57.634;18.310;2023-01-13T00:03:04;4.63;;;2.07;;
12385;SDS011;6257;57.634;18.310;2023-01-13T00:05:32;6.77;;;1.77;;
12385;SDS011;6257;57.634;18.310;2023-01-13T00:07:59;3.27;;;1.43;;
12385;SDS011;6257;57.634;18.310;2023-01-13T00:10:29;2.50;;;1.50;;
12385;SDS011;6257;57.634;18.310;2023-01-13T00:12:57;4.27;;;1.40;;
12385;SDS011;6257;57.634;18.310;2023-01-13T00:15:24;5.30;;;2.00;;
12385;SDS011;6257;57.634;18.310;2023-01-13T00:17:51;4.33;;;1.40;;
12385;SDS011;6257;57.634;18.310;2023-01-13T00:20:18;4.43;;;1.30;;
12385;SDS011;6257;57.634;18.310;2023-01-13T00:22:45;1.27;;;1.10;;
12385;SDS011;6257;57.634;18.310;2023-01-13T00:25:13;2.20;;;1.40;;
12385;SDS011;6257;57.634;18.310;2023-01-13T00:27:40;2.57;;;1.43;;
12385;SDS011;6257;57.634;18.310;2023-01-13T00:30:09;2.43;;;1.10;;
12385;SDS011;6257;57.634;18.310;2023-01-13T00:32:37;3.57;;;1.50;;
12385;SDS011;6257;57.634;18.310;2023-01-13T00:35:04;8.10;;;1.60;;
12385;SDS011;6257;57.634;18.310;2023-01-13T00:37:34;3.53;;;1.40;;
12385;SDS011;6257;57.634;18.310;2023-01-13T00:40:02;2.67;;;1.23;;
12385;SDS011;6257;57.634;18.310;2023-01-13T00:42:29;3.87;;;1.43;;
12385;SDS011;6257;57.634;18.310;2023-01-13T00:45:15;3.93;;;1.50;;
12385;SDS011;6257;57.634;18.310;2023-01-13T00:47:42;1.77;;;1.60;;
12385;SDS011;6257;57.634;18.310;2023-01-13T00:50:09;1.73;;;1.10;;
12385;SDS011;6257;57.634;18.310;2023-01-13T00:52:36;3.57;;;1.17;;
12385;SDS011;6257;57.634;18.310;2023-01-13T00:55:04;1.50;;;1.07;;
12385;SDS011;6257;57.634;18.310;2023-01-13T00:57:32;5.63;;;1.40;;
12385;SDS011;6257;57.634;18.310;2023-01-13T01:00:00;5.30;;;1.70;;
12385;SDS011;6257;57.634;18.310;2023-01-13T01:02:28;4.30;;;1.97;;
12385;SDS011;6257;57.634;18.310;2023-01-13T01:04:55;4.27;;;1.80;;
12385;SDS011;6257;57.634;18.310;2023-01-13T01:07:24;3.43;;;1.93;;
12385;SDS011;6257;57.634;18.310;2023-01-13T01:09:51;6.43;;;2.60;;
12385;SDS011;6257;57.634;18.310;2023-01-13T01:12:18;3.60;;;2.37;;
12385;SDS011;6257;57.634;18.310;2023-01-13T01:14:45;4.13;;;2.30;;
12385;SDS011;6257;57.634;18.310;2023-01-13T01:17:12;8.00;;;2.63;;
12385;SDS011;6257;57.634;18.310;2023-01-13T01:19:40;7.83;;;3.10;;
12385;SDS011;6257;57.634;18.310;2023-01-13T01:22:08;9.40;;;2.97;;
12385;SDS011;6257;57.634;18.310;2023-01-13T01:24:35;8.17;;;2.93;;
12385;SDS011;6257;57.634;18.310;2023-01-13T01:27:02;13.17;;;3.60;;
12385;SDS011;6257;57.634;18.310;2023-01-13T01:29:29;19.13;;;4.03;;
12385;SDS011;6257;57.634;18.310;2023-01-13T01:31:56;19.87;;;4.07;;
12385;SDS011;6257;57.634;18.310;2023-01-13T01:34:24;18.43;;;3.50;;
12385;SDS011;6257;57.634;18.310;2023-01-13T01:36:52;15.17;;;3.37;;
12385;SDS011;6257;57.634;18.310;2023-01-13T01:39:19;13.40;;;3.30;;
12385;SDS011;6257;57.634;18.310;2023-01-13T01:41:47;7.47;;;2.73;;
12385;SDS011;6257;57.634;18.310;2023-01-13T01:47:25;4.93;;;1.97;;
12385;SDS011;6257;57.634;18.310;2023-01-13T01:49:54;8.97;;;2.40;;
12385;SDS011;6257;57.634;18.310;2023-01-13T01:52:25;6.10;;;2.13;;
12385;SDS011;6257;57.634;18.310;2023-01-13T01:54:57;8.53;;;2.00;;
12385;SDS011;6257;57.634;18.310;2023-01-13T01:57:28;5.40;;;1.73;;
12385;SDS011;6257;57.634;18.310;2023-01-13T01:59:58;6.27;;;2.00;;
12385;SDS011;6257;57.634;18.310;2023-01-13T02:02:26;11.63;;;2.60;;
12385;SDS011;6257;57.634;18.310;2023-01-13T02:04:54;17.33;;;2.70;;
12385;SDS011;6257;57.634;18.310;2023-01-13T02:07:24;13.60;;;2.00;;
12385;SDS011;6257;57.634;18.310;2023-01-13T02:09:56;17.83;;;1.90;;
12385;SDS011;6257;57.634;18.310;2023-01-13T02:12:24;18.37;;;3.37;;
12385;SDS011;6257;57.634;18.310;2023-01-13T02:14:56;15.57;;;1.17;;
12385;SDS011;6257;57.634;18.310;2023-01-13T02:17:31;6.37;;;1.03;;
12385;SDS011;6257;57.634;18.310;2023-01-13T02:23:34;20.93;;;2.07;;
12385;SDS011;6257;57.634;18.310;2023-01-13T02:26:51;11.07;;;1.60;;
12385;SDS011;6257;57.634;18.310;2023-01-13T02:29:47;5.63;;;1.23;;
12385;SDS011;6257;57.634;18.310;2023-01-13T02:32:43;7.83;;;1.30;;
12385;SDS011;6257;57.634;18.310;2023-01-13T02:35:19;13.30;;;1.67;;
12385;SDS011;6257;57.634;18.310;2023-01-13T02:37:51;6.70;;;1.67;;
12385;SDS011;6257;57.634;18.310;2023-01-13T02:40:21;8.03;;;1.90;;
12385;SDS011;6257;57.634;18.310;2023-01-13T02:42:55;6.80;;;1.60;;
12385;SDS011;6257;57.634;18.310;2023-01-13T02:45:47;4.43;;;1.57;;
12385;SDS011;6257;57.634;18.310;2023-01-13T02:48:19;7.13;;;1.93;;
12385;SDS011;6257;57.634;18.310;2023-01-13T02:50:49;5.13;;;1.60;;
12385;SDS011;6257;57.634;18.310;2023-01-13T02:53:24;4.57;;;1.43;;
12385;SDS011;6257;57.634;18.310;2023-01-13T02:55:54;7.30;;;1.63;;
12385;SDS011;6257;57.634;18.310;2023-01-13T02:58:25;4.77;;;1.40;;
12385;SDS011;6257;57.634;18.310;2023-01-13T03:00:56;6.57;;;1.93;;
12385;SDS011;6257;57.634;18.310;2023-01-13T03:03:23;7.93;;;2.20;;
12385;SDS011;6257;57.634;18.310;2023-01-13T03:05:52;6.67;;;1.97;;
12385;SDS011;6257;57.634;18.310;2023-01-13T03:08:28;4.87;;;2.10;;
12385;SDS011;6257;57.634;18.310;2023-01-13T03:11:04;4.50;;;2.00;;
12385;SDS011;6257;57.634;18.310;2023-01-13T03:13:39;11.80;;;2.20;;
12385;SDS011;6257;57.634;18.310;2023-01-13T03:16:35;10.13;;;1.90;;
12385;SDS011;6257;57.634;18.310;2023-01-13T03:19:16;8.50;;;1.93;;
12385;SDS011;6257;57.634;18.310;2023-01-13T03:21:52;4.33;;;2.07;;
12385;SDS011;6257;57.634;18.310;2023-01-13T03:24:25;4.23;;;2.30;;
12385;SDS011;6257;57.634;18.310;2023-01-13T03:26:57;3.93;;;2.30;;
12385;SDS011;6257;57.634;18.310;2023-01-13T03:29:31;4.90;;;2.00;;
12385;SDS011;6257;57.634;18.310;2023-01-13T03:32:05;7.00;;;2.17;;
12385;SDS011;6257;57.634;18.310;2023-01-13T03:34:37;3.10;;;1.83;;
12385;SDS011;6257;57.634;18.310;2023-01-13T03:37:10;3.03;;;1.93;;
12385;SDS011;6257;57.634;18.310;2023-01-13T03:39:41;3.60;;;2.03;;
12385;SDS011;6257;57.634;18.310;2023-01-13T03:42:14;4.30;;;2.23;;
12385;SDS011;6257;57.634;18.310;2023-01-13T03:44:45;3.70;;;2.03;;
12385;SDS011;6257;57.634;18.310;2023-01-13T03:47:18;2.77;;;2.00;;
12385;SDS011;6257;57.634;18.310;2023-01-13T03:49:51;5.60;;;2.03;;
12385;SDS011;6257;57.634;18.310;2023-01-13T03:52:21;4.13;;;2.63;;
12385;SDS011;6257;57.634;18.310;2023-01-13T03:54:52;4.93;;;2.17;;
12385;SDS011;6257;57.634;18.310;2023-01-13T03:57:24;4.87;;;2.30;;
12385;SDS011;6257;57.634;18.310;2023-01-13T03:59:55;6.63;;;2.70;;
12385;SDS011;6257;57.634;18.310;2023-01-13T04:02:29;12.27;;;3.10;;
12385;SDS011;6257;57.634;18.310;2023-01-13T04:05:09;5.53;;;2.80;;
12385;SDS011;6257;57.634;18.310;2023-01-13T04:07:39;4.37;;;2.90;;
12385;SDS011;6257;57.634;18.310;2023-01-13T04:10:13;7.07;;;3.47;;
12385;SDS011;6257;57.634;18.310;2023-01-13T04:12:44;6.50;;;3.23;;
12385;SDS011;6257;57.634;18.310;2023-01-13T04:15:28;6.57;;;3.47;;
12385;SDS011;6257;57.634;18.310;2023-01-13T04:18:07;7.87;;;3.87;;
12385;SDS011;6257;57.634;18.310;2023-01-13T04:20:39;8.93;;;3.70;;
12385;SDS011;6257;57.634;18.310;2023-01-13T04:23:07;7.77;;;4.20;;
12385;SDS011;6257;57.634;18.310;2023-01-13T04:25:34;8.13;;;4.33;;
12385;SDS011;6257;57.634;18.310;2023-01-13T04:28:04;8.33;;;3.80;;
12385;SDS011;6257;57.634;18.310;2023-01-13T04:30:32;9.23;;;4.83;;
12385;SDS011;6257;57.634;18.310;2023-01-13T04:32:59;8.37;;;4.47;;
12385;SDS011;6257;57.634;18.310;2023-01-13T04:35:29;9.50;;;4.30;;
12385;SDS011;6257;57.634;18.310;2023-01-13T04:37:58;9.23;;;5.13;;
12385;SDS011;6257;57.634;18.310;2023-01-13T04:40:26;9.30;;;4.60;;
12385;SDS011;6257;57.634;18.310;2023-01-13T04:42:53;9.40;;;4.60;;
12385;SDS011;6257;57.634;18.310;2023-01-13T04:45:21;11.23;;;5.00;;
12385;SDS011;6257;57.634;18.310;2023-01-13T04:47:48;9.53;;;4.97;;
12385;SDS011;6257;57.634;18.310;2023-01-13T04:50:15;8.27;;;4.90;;
12385;SDS011;6257;57.634;18.310;2023-01-13T04:52:46;11.00;;;5.73;;
12385;SDS011;6257;57.634;18.310;2023-01-13T04:55:13;11.27;;;5.57;;
12385;SDS011;6257;57.634;18.310;2023-01-13T04:57:41;8.90;;;4.77;;
12385;SDS011;6257;57.634;18.310;2023-01-13T05:00:08;9.97;;;5.47;;
12385;SDS011;6257;57.634;18.310;2023-01-13T05:02:37;9.10;;;5.03;;
12385;SDS011;6257;57.634;18.310;2023-01-13T05:05:05;8.57;;;5.17;;
12385;SDS011;6257;57.634;18.310;2023-01-13T05:07:32;9.60;;;4.80;;
12385;SDS011;6257;57.634;18.310;2023-01-13T05:10:01;8.70;;;5.00;;
12385;SDS011;6257;57.634;18.310;2023-01-13T05:12:28;10.27;;;5.10;;
12385;SDS011;6257;57.634;18.310;2023-01-13T05:15:13;10.73;;;5.00;;
12385;SDS011;6257;57.634;18.310;2023-01-13T05:17:58;9.53;;;4.90;;
12385;SDS011;6257;57.634;18.310;2023-01-13T05:20:25;8.33;;;4.80;;
12385;SDS011;6257;57.634;18.310;2023-01-13T05:22:53;8.60;;;4.43;;
12385;SDS011;6257;57.634;18.310;2023-01-13T05:25:39;10.27;;;4.97;;
12385;SDS011;6257;57.634;18.310;2023-01-13T05:28:07;8.50;;;4.70;;
12385;SDS011;6257;57.634;18.310;2023-01-13T05:30:36;10.13;;;4.60;;
12385;SDS011;6257;57.634;18.310;2023-01-13T05:33:06;10.97;;;4.77;;
12385;SDS011;6257;57.634;18.310;2023-01-13T05:35:33;7.57;;;4.20;;
12385;SDS011;6257;57.634;18.310;2023-01-13T05:38:02;9.13;;;4.73;;
12385;SDS011;6257;57.634;18.310;2023-01-13T05:40:29;9.87;;;4.60;;
12385;SDS011;6257;57.634;18.310;2023-01-13T05:43:16;11.27;;;5.17;;
12385;SDS011;6257;57.634;18.310;2023-01-13T05:45:54;8.60;;;4.90;;
12385;SDS011;6257;57.634;18.310;2023-01-13T05:48:23;10.90;;;4.80;;
12385;SDS011;6257;57.634;18.310;2023-01-13T05:50:51;10.37;;;4.93;;
12385;SDS011;6257;57.634;18.310;2023-01-13T05:53:19;10.80;;;5.37;;
12385;SDS011;6257;57.634;18.310;2023-01-13T05:55:47;10.70;;;5.50;;
12385;SDS011;6257;57.634;18.310;2023-01-13T05:58:17;11.07;;;6.00;;
12385;SDS011;6257;57.634;18.310;2023-01-13T06:00:45;11.07;;;5.83;;
12385;SDS011;6257;57.634;18.310;2023-01-13T06:03:13;14.13;;;6.50;;
12385;SDS011;6257;57.634;18.310;2023-01-13T06:05:43;13.87;;;5.87;;
12385;SDS011;6257;57.634;18.310;2023-01-13T06:08:11;13.93;;;6.43;;
12385;SDS011;6257;57.634;18.310;2023-01-13T06:10:40;16.50;;;6.73;;
12385;SDS011;6257;57.634;18.310;2023-01-13T06:13:07;13.87;;;6.57;;
12385;SDS011;6257;57.634;18.310;2023-01-13T06:15:35;13.43;;;7.03;;
12385;SDS011;6257;57.634;18.310;2023-01-13T06:18:02;16.93;;;6.93;;
12385;SDS011;6257;57.634;18.310;2023-01-13T06:20:30;16.43;;;7.30;;
12385;SDS011;6257;57.634;18.310;2023-01-13T06:22:58;14.63;;;7.53;;
12385;SDS011;6257;57.634;18.310;2023-01-13T06:25:28;15.60;;;7.63;;
12385;SDS011;6257;57.634;18.310;2023-01-13T06:28:04;15.83;;;7.57;;
12385;SDS011;6257;57.634;18.310;2023-01-13T06:30:33;19.73;;;8.50;;
12385;SDS011;6257;57.634;18.310;2023-01-13T06:33:05;20.10;;;8.10;;
12385;SDS011;6257;57.634;18.310;2023-01-13T06:35:37;16.93;;;7.77;;
12385;SDS011;6257;57.634;18.310;2023-01-13T06:38:06;19.23;;;8.20;;
12385;SDS011;6257;57.634;18.310;2023-01-13T06:40:36;19.40;;;8.60;;
12385;SDS011;6257;57.634;18.310;2023-01-13T06:43:04;15.33;;;7.80;;
12385;SDS011;6257;57.634;18.310;2023-01-13T06:45:40;21.03;;;8.43;;
12385;SDS011;6257;57.634;18.310;2023-01-13T06:48:09;17.00;;;7.60;;
12385;SDS011;6257;57.634;18.310;2023-01-13T06:50:37;17.17;;;7.87;;
12385;SDS011;6257;57.634;18.310;2023-01-13T06:53:04;14.70;;;6.90;;
12385;SDS011;6257;57.634;18.310;2023-01-13T06:55:31;15.87;;;6.90;;
12385;SDS011;6257;57.634;18.310;2023-01-13T06:57:58;16.07;;;6.73;;
12385;SDS011;6257;57.634;18.310;2023-01-13T07:00:25;10.17;;;6.13;;
12385;SDS011;6257;57.634;18.310;2023-01-13T07:02:59;11.40;;;5.10;;
12385;SDS011;6257;57.634;18.310;2023-01-13T07:05:34;12.90;;;5.30;;
12385;SDS011;6257;57.634;18.310;2023-01-13T07:08:01;9.50;;;5.70;;
12385;SDS011;6257;57.634;18.310;2023-01-13T07:10:29;8.87;;;4.70;;
12385;SDS011;6257;57.634;18.310;2023-01-13T07:12:58;11.07;;;5.00;;
12385;SDS011;6257;57.634;18.310;2023-01-13T07:15:51;10.93;;;4.43;;
12385;SDS011;6257;57.634;18.310;2023-01-13T07:18:23;10.27;;;4.70;;
12385;SDS011;6257;57.634;18.310;2023-01-13T07:20:52;14.63;;;5.53;;
12385;SDS011;6257;57.634;18.310;2023-01-13T07:23:23;10.37;;;5.77;;
12385;SDS011;6257;57.634;18.310;2023-01-13T07:25:50;9.87;;;4.70;;
12385;SDS011;6257;57.634;18.310;2023-01-13T07:28:19;9.13;;;5.10;;
12385;SDS011;6257;57.634;18.310;2023-01-13T07:30:46;10.13;;;5.77;;
12385;SDS011;6257;57.634;18.310;2023-01-13T07:33:13;9.30;;;5.17;;
12385;SDS011;6257;57.634;18.310;2023-01-13T07:35:43;9.07;;;5.30;;
12385;SDS011;6257;57.634;18.310;2023-01-13T07:38:11;9.97;;;5.07;;
12385;SDS011;6257;57.634;18.310;2023-01-13T07:40:38;10.80;;;5.90;;
12385;SDS011;6257;57.634;18.310;2023-01-13T07:43:05;11.03;;;6.00;;
12385;SDS011;6257;57.634;18.310;2023-01-13T07:45:54;19.57;;;6.70;;
12385;SDS011;6257;57.634;18.310;2023-01-13T07:48:22;11.57;;;5.97;;
12385;SDS011;6257;57.634;18.310;2023-01-13T07:50:51;10.97;;;5.70;;
12385;SDS011;6257;57.634;18.310;2023-01-13T07:53:18;9.47;;;5.40;;
12385;SDS011;6257;57.634;18.310;2023-01-13T07:55:45;9.40;;;5.43;;
12385;SDS011;6257;57.634;18.310;2023-01-13T07:58:12;9.43;;;5.80;;
12385;SDS011;6257;57.634;18.310;2023-01-13T08:00:39;8.23;;;4.73;;
12385;SDS011;6257;57.634;18.310;2023-01-13T08:03:06;7.70;;;4.20;;
12385;SDS011;6257;57.634;18.310;2023-01-13T08:05:34;8.60;;;4.27;;
12385;SDS011;6257;57.634;18.310;2023-01-13T08:08:03;6.67;;;4.33;;
12385;SDS011;6257;57.634;18.310;2023-01-13T08:10:30;6.60;;;3.77;;
12385;SDS011;6257;57.634;18.310;2023-01-13T08:12:57;6.60;;;4.10;;
12385;SDS011;6257;57.634;18.310;2023-01-13T08:15:44;5.57;;;3.70;;
12385;SDS011;6257;57.634;18.310;2023-01-13T08:18:13;5.30;;;3.40;;
12385;SDS011;6257;57.634;18.310;2023-01-13T08:20:40;4.40;;;3.20;;
12385;SDS011;6257;57.634;18.310;2023-01-13T08:23:08;5.33;;;3.53;;
12385;SDS011;6257;57.634;18.310;2023-01-13T08:25:35;5.43;;;3.57;;
12385;SDS011;6257;57.634;18.310;2023-01-13T08:28:02;8.67;;;3.97;;
12385;SDS011;6257;57.634;18.310;2023-01-13T08:30:30;7.40;;;3.87;;
12385;SDS011;6257;57.634;18.310;2023-01-13T08:32:57;12.10;;;4.50;;
12385;SDS011;6257;57.634;18.310;2023-01-13T08:35:24;12.93;;;4.40;;
12385;SDS011;6257;57.634;18.310;2023-01-13T08:37:51;6.77;;;3.90;;
12385;SDS011;6257;57.634;18.310;2023-01-13T08:40:20;5.80;;;3.20;;
12385;SDS011;6257;57.634;18.310;2023-01-13T08:42:47;9.10;;;4.03;;
12385;SDS011;6257;57.634;18.310;2023-01-13T08:45:14;10.70;;;4.40;;
12385;SDS011;6257;57.634;18.310;2023-01-13T08:47:42;13.20;;;5.53;;
12385;SDS011;6257;57.634;18.310;2023-01-13T08:50:09;10.47;;;5.03;;
12385;SDS011;6257;57.634;18.310;2023-01-13T08:52:37;5.80;;;3.23;;
12385;SDS011;6257;57.634;18.310;2023-01-13T08:55:04;11.70;;;5.20;;
12385;SDS011;6257;57.634;18.310;2023-01-13T08:57:33;21.00;;;6.33;;
12385;SDS011;6257;57.634;18.310;2023-01-13T09:00:01;7.57;;;3.87;;
12385;SDS011;6257;57.634;18.310;2023-01-13T09:02:29;10.33;;;5.40;;
12385;SDS011;6257;57.634;18.310;2023-01-13T09:04:56;10.93;;;5.67;;
12385;SDS011;6257;57.634;18.310;2023-01-13T09:07:27;11.63;;;5.13;;
12385;SDS011;6257;57.634;18.310;2023-01-13T09:09:54;14.13;;;5.67;;
12385;SDS011;6257;57.634;18.310;2023-01-13T09:12:22;14.33;;;6.50;;
12385;SDS011;6257;57.634;18.310;2023-01-13T09:15:08;14.23;;;6.97;;
12385;SDS011;6257;57.634;18.310;2023-01-13T09:17:36;14.13;;;6.23;;
12385;SDS011;6257;57.634;18.310;2023-01-13T09:20:03;10.03;;;5.23;;
12385;SDS011;6257;57.634;18.310;2023-01-13T09:22:31;11.10;;;5.70;;
12385;SDS011;6257;57.634;18.310;2023-01-13T09:25:00;12.27;;;5.93;;
12385;SDS011;6257;57.634;18.310;2023-01-13T09:27:27;14.53;;;6.63;;
12385;SDS011;6257;57.634;18.310;2023-01-13T09:29:54;11.63;;;6.17;;
12385;SDS011;6257;57.634;18.310;2023-01-13T09:32:23;14.67;;;6.33;;
12385;SDS011;6257;57.634;18.310;2023-01-13T09:34:50;14.97;;;6.30;;
12385;SDS011;6257;57.634;18.310;2023-01-13T09:37:25;14.40;;;6.80;;
12385;SDS011;6257;57.634;18.310;2023-01-13T09:39:53;18.80;;;7.40;;
12385;SDS011;6257;57.634;18.310;2023-01-13T09:42:23;11.47;;;5.67;;
12385;SDS011;6257;57.634;18.310;2023-01-13T09:45:14;13.93;;;6.67;;
12385;SDS011;6257;57.634;18.310;2023-01-13T09:47:49;9.87;;;5.97;;
12385;SDS011;6257;57.634;18.310;2023-01-13T09:50:23;16.53;;;6.50;;
12385;SDS011;6257;57.634;18.310;2023-01-13T09:52:58;12.00;;;6.40;;
12385;SDS011;6257;57.634;18.310;2023-01-13T09:55:28;9.63;;;5.00;;
12385;SDS011;6257;57.634;18.310;2023-01-13T09:57:58;12.20;;;5.47;;
12385;SDS011;6257;57.634;18.310;2023-01-13T10:00:28;10.30;;;5.60;;
12385;SDS011;6257;57.634;18.310;2023-01-13T10:03:07;13.90;;;6.07;;
12385;SDS011;6257;57.634;18.310;2023-01-13T10:05:45;14.20;;;5.93;;
12385;SDS011;6257;57.634;18.310;2023-01-13T10:08:17;14.23;;;5.47;;
12385;SDS011;6257;57.634;18.310;2023-01-13T10:10:49;13.10;;;5.87;;
12385;SDS011;6257;57.634;18.310;2023-01-13T10:13:20;12.17;;;5.73;;
12385;SDS011;6257;57.634;18.310;2023-01-13T10:15:53;17.67;;;5.57;;
12385;SDS011;6257;57.634;18.310;2023-01-13T10:18:27;12.83;;;4.93;;
12385;SDS011;6257;57.634;18.310;2023-01-13T10:21:01;10.73;;;4.50;;
12385;SDS011;6257;57.634;18.310;2023-01-13T10:23:47;13.43;;;4.53;;
12385;SDS011;6257;57.634;18.310;2023-01-13T10:26:26;9.20;;;4.00;;
12385;SDS011;6257;57.634;18.310;2023-01-13T10:29:14;12.63;;;4.00;;
12385;SDS011;6257;57.634;18.310;2023-01-13T10:31:45;11.43;;;3.60;;
12385;SDS011;6257;57.634;18.310;2023-01-13T10:34:14;16.17;;;4.23;;
12385;SDS011;6257;57.634;18.310;2023-01-13T10:36:45;13.67;;;3.93;;
12385;SDS011;6257;57.634;18.310;2023-01-13T10:39:23;11.73;;;3.57;;
12385;SDS011;6257;57.634;18.310;2023-01-13T10:41:59;12.73;;;3.40;;
12385;SDS011;6257;57.634;18.310;2023-01-13T10:44:28;8.50;;;3.60;;
12385;SDS011;6257;57.634;18.310;2023-01-13T10:46:55;10.60;;;3.50;;
12385;SDS011;6257;57.634;18.310;2023-01-13T10:49:27;11.63;;;3.07;;
12385;SDS011;6257;57.634;18.310;2023-01-13T10:51:57;14.40;;;3.60;;
12385;SDS011;6257;57.634;18.310;2023-01-13T10:54:24;8.30;;;3.10;;
12385;SDS011;6257;57.634;18.310;2023-01-13T10:59:43;11.63;;;3.30;;
12385;SDS011;6257;57.634;18.310;2023-01-13T11:02:18;13.93;;;2.93;;
12385;SDS011;6257;57.634;18.310;2023-01-13T11:05:14;10.90;;;3.10;;
12385;SDS011;6257;57.634;18.310;2023-01-13T11:07:47;13.03;;;3.27;;
12385;SDS011;6257;57.634;18.310;2023-01-13T11:10:20;16.73;;;3.23;;
12385;SDS011;6257;57.634;18.310;2023-01-13T11:12:52;13.77;;;3.47;;
12385;SDS011;6257;57.634;18.310;2023-01-13T11:15:28;18.30;;;2.80;;
12385;SDS011;6257;57.634;18.310;2023-01-13T11:18:04;15.53;;;3.30;;
12385;SDS011;6257;57.634;18.310;2023-01-13T11:20:41;9.07;;;2.70;;
12385;SDS011;6257;57.634;18.310;2023-01-13T11:23:11;10.83;;;2.33;;
12385;SDS011;6257;57.634;18.310;2023-01-13T11:25:43;15.17;;;3.00;;
12385;SDS011;6257;57.634;18.310;2023-01-13T11:28:25;16.73;;;3.47;;
12385;SDS011;6257;57.634;18.310;2023-01-13T11:31:04;19.80;;;4.17;;
12385;SDS011;6257;57.634;18.310;2023-01-13T11:33:40;16.87;;;3.60;;
12385;SDS011;6257;57.634;18.310;2023-01-13T11:36:13;18.97;;;4.43;;
12385;SDS011;6257;57.634;18.310;2023-01-13T11:38:44;15.37;;;3.17;;
12385;SDS011;6257;57.634;18.310;2023-01-13T11:41:18;17.27;;;3.53;;
12385;SDS011;6257;57.634;18.310;2023-01-13T11:43:53;14.23;;;3.20;;
12385;SDS011;6257;57.634;18.310;2023-01-13T11:46:25;20.27;;;3.50;;
12385;SDS011;6257;57.634;18.310;2023-01-13T11:48:53;21.93;;;4.60;;
12385;SDS011;6257;57.634;18.310;2023-01-13T11:51:26;20.77;;;3.57;;
12385;SDS011;6257;57.634;18.310;2023-01-13T11:54:08;17.90;;;4.20;;
12385;SDS011;6257;57.634;18.310;2023-01-13T12:02:56;16.70;;;3.47;;
12385;SDS011;6257;57.634;18.310;2023-01-13T12:05:43;22.67;;;3.83;;
12385;SDS011;6257;57.634;18.310;2023-01-13T12:08:28;20.57;;;3.87;;
12385;SDS011;6257;57.634;18.310;2023-01-13T12:11:13;14.57;;;3.83;;
12385;SDS011;6257;57.634;18.310;2023-01-13T12:13:44;18.10;;;3.60;;
12385;SDS011;6257;57.634;18.310;2023-01-13T12:16:19;16.50;;;3.70;;
12385;SDS011;6257;57.634;18.310;2023-01-13T12:18:58;22.97;;;3.80;;
12385;SDS011;6257;57.634;18.310;2023-01-13T12:21:48;20.03;;;4.10;;
12385;SDS011;6257;57.634;18.310;2023-01-13T12:24:36;12.27;;;3.47;;
12385;SDS011;6257;57.634;18.310;2023-01-13T12:27:10;18.43;;;3.87;;
12385;SDS011;6257;57.634;18.310;2023-01-13T12:29:43;26.23;;;4.53;;
12385;SDS011;6257;57.634;18.310;2023-01-13T12:32:15;25.07;;;3.93;;
12385;SDS011;6257;57.634;18.310;2023-01-13T12:34:51;18.23;;;3.97;;
12385;SDS011;6257;57.634;18.310;2023-01-13T12:37:30;22.67;;;4.10;;
12385;SDS011;6257;57.634;18.310;2023-01-13T12:40:20;19.43;;;3.97;;
12385;SDS011;6257;57.634;18.310;2023-01-13T12:42:54;22.60;;;3.40;;
12385;SDS011;6257;57.634;18.310;2023-01-13T12:45:46;24.53;;;4.13;;
12385;SDS011;6257;57.634;18.310;2023-01-13T12:51:20;20.87;;;3.57;;
12385;SDS011;6257;57.634;18.310;2023-01-13T12:53:48;16.43;;;3.80;;
12385;SDS011;6257;57.634;18.310;2023-01-13T13:04:53;18.13;;;4.03;;
12385;SDS011;6257;57.634;18.310;2023-01-13T13:07:25;21.53;;;3.93;;
12385;SDS011;6257;57.634;18.310;2023-01-13T13:10:03;32.70;;;4.67;;
12385;SDS011;6257;57.634;18.310;2023-01-13T13:12:51;20.73;;;2.83;;
12385;SDS011;6257;57.634;18.310;2023-01-13T13:15:37;20.33;;;3.40;;
12385;SDS011;6257;57.634;18.310;2023-01-13T13:20:53;27.83;;;4.33;;
12385;SDS011;6257;57.634;18.310;2023-01-13T13:29:20;25.53;;;3.53;;
12385;SDS011;6257;57.634;18.310;2023-01-13T13:35:15;21.10;;;3.57;;
12385;SDS011;6257;57.634;18.310;2023-01-13T13:38:05;23.10;;;3.63;;
12385;SDS011;6257;57.634;18.310;2023-01-13T13:41:01;19.53;;;3.77;;
12385;SDS011;6257;57.634;18.310;2023-01-13T13:43:48;30.37;;;4.27;;
12385;SDS011;6257;57.634;18.310;2023-01-13T13:46:42;15.47;;;3.20;;
12385;SDS011;6257;57.634;18.310;2023-01-13T13:49:14;21.50;;;3.87;;
12385;SDS011;6257;57.634;18.310;2023-01-13T13:51:44;14.70;;;3.50;;
12385;SDS011;6257;57.634;18.310;2023-01-13T13:54:17;30.17;;;5.10;;
12385;SDS011;6257;57.634;18.310;2023-01-13T13:56:46;16.37;;;3.03;;
12385;SDS011;6257;57.634;18.310;2023-01-13T13:59:16;19.50;;;4.67;;
12385;SDS011;6257;57.634;18.310;2023-01-13T14:01:49;22.40;;;4.10;;
12385;SDS011;6257;57.634;18.310;2023-01-13T14:04:25;23.40;;;3.13;;
12385;SDS011;6257;57.634;18.310;2023-01-13T14:06:56;30.93;;;4.43;;
12385;SDS011;6257;57.634;18.310;2023-01-13T14:09:24;24.77;;;4.40;;
12385;SDS011;6257;57.634;18.310;2023-01-13T14:11:58;24.77;;;4.23;;
12385;SDS011;6257;57.634;18.310;2023-01-13T14:14:26;23.17;;;5.10;;
12385;SDS011;6257;57.634;18.310;2023-01-13T14:16:55;20.63;;;3.67;;
12385;SDS011;6257;57.634;18.310;2023-01-13T14:19:29;26.10;;;5.07;;
12385;SDS011;6257;57.634;18.310;2023-01-13T14:21:58;28.40;;;5.00;;
12385;SDS011;6257;57.634;18.310;2023-01-13T14:24:27;24.37;;;4.53;;
12385;SDS011;6257;57.634;18.310;2023-01-13T14:27:05;24.20;;;4.23;;
12385;SDS011;6257;57.634;18.310;2023-01-13T14:29:33;27.87;;;4.80;;
12385;SDS011;6257;57.634;18.310;2023-01-13T14:32:03;26.70;;;4.63;;
12385;SDS011;6257;57.634;18.310;2023-01-13T14:34:32;25.47;;;4.57;;
12385;SDS011;6257;57.634;18.310;2023-01-13T14:37:01;30.47;;;4.73;;
12385;SDS011;6257;57.634;18.310;2023-01-13T14:39:33;29.33;;;4.77;;
12385;SDS011;6257;57.634;18.310;2023-01-13T14:42:02;22.27;;;4.70;;
12385;SDS011;6257;57.634;18.310;2023-01-13T14:44:29;18.90;;;3.93;;
12385;SDS011;6257;57.634;18.310;2023-01-13T14:47:00;20.80;;;3.67;;
12385;SDS011;6257;57.634;18.310;2023-01-13T14:49:43;24.27;;;4.10;;
12385;SDS011;6257;57.634;18.310;2023-01-13T14:52:23;26.47;;;4.50;;
12385;SDS011;6257;57.634;18.310;2023-01-13T14:54:53;24.83;;;4.07;;
12385;SDS011;6257;57.634;18.310;2023-01-13T15:06:50;16.40;;;3.27;;
12385;SDS011;6257;57.634;18.310;2023-01-13T15:09:21;29.37;;;4.67;;
12385;SDS011;6257;57.634;18.310;2023-01-13T15:11:51;20.17;;;4.63;;
12385;SDS011;6257;57.634;18.310;2023-01-13T15:14:19;19.13;;;3.43;;
12385;SDS011;6257;57.634;18.310;2023-01-13T15:16:50;20.37;;;4.40;;
12385;SDS011;6257;57.634;18.310;2023-01-13T15:19:19;18.07;;;3.47;;
12385;SDS011;6257;57.634;18.310;2023-01-13T15:21:46;21.90;;;4.40;;
12385;SDS011;6257;57.634;18.310;2023-01-13T15:24:13;22.83;;;3.73;;
12385;SDS011;6257;57.634;18.310;2023-01-13T15:26:40;17.37;;;3.53;;
12385;SDS011;6257;57.634;18.310;2023-01-13T15:29:08;17.77;;;3.13;;
12385;SDS011;6257;57.634;18.310;2023-01-13T15:31:38;22.23;;;4.30;;
12385;SDS011;6257;57.634;18.310;2023-01-13T15:34:06;26.73;;;5.90;;
12385;SDS011;6257;57.634;18.310;2023-01-13T15:36:35;19.10;;;3.80;;
12385;SDS011;6257;57.634;18.310;2023-01-13T15:39:02;18.87;;;3.73;;
12385;SDS011;6257;57.634;18.310;2023-01-13T15:41:29;13.87;;;3.77;;
12385;SDS011;6257;57.634;18.310;2023-01-13T15:44:14;20.23;;;3.83;;
12385;SDS011;6257;57.634;18.310;2023-01-13T15:47:00;15.40;;;4.40;;
12385;SDS011;6257;57.634;18.310;2023-01-13T15:49:29;16.23;;;3.30;;
12385;SDS011;6257;57.634;18.310;2023-01-13T15:52:02;21.47;;;4.37;;
12385;SDS011;6257;57.634;18.310;2023-01-13T15:54:31;15.80;;;4.07;;
12385;SDS011;6257;57.634;18.310;2023-01-13T15:56:58;20.70;;;4.23;;